Main page
METAR-TAF:

METAR-TAF

Airports :

Pago Pago International Airport

Pago Pago, United States Minor Outlying Islands

latitude: 14-20S, longitude: 170-43W, elevation: 3 m

Current weather observation

The report was made 42 minutes ago, at 05:50 UTC
Wind 12 kt from the East
Temperature 27°C
Humidity 84%
Pressure 1012 hPa
Visibility: 16.1 km
Few clouds at a height of 1700 ft
Scattered clouds at a height of 4000 ft
Broken clouds at a height of 10000 ft

METAR: NSTU 170550Z 10012KT 10SM FEW017 SCT040 BKN100 27/24 A2987 RMK SHRAE01 SLP115 60004 8/870 T02690243 10305 20258 51007

Time: 19:32 (06:32 UTC)

Forecast

The report was made 1 hour and 12 minutes ago, at 05:20 UTC
Forecast valid from 17 at 06 UTC to 18 at 06 UTC
Wind 13 kt from the East/Southeast
Visibility: 10 km
Scattered clouds at a height of 1800 ft
Broken clouds at a height of 4000 ft
showers in vicinity

TAF: NSTU 170520Z 1706/1806 11013KT P6SM VCSH SCT018 BKN040

Weather observations and forecasts of more than 4000 airports (METAR and TAF reports).

The available stations are represented by yellow and red dots on the map.

Hover mouse over dot to see the name of the station.

Then click to see weather observations and forecasts.

To change the map : click on the green buttons with a black cross to zoom in, on the green button with a dash to zoom out, or on the green arrows for adjacent maps.


METAR-TAF: